createdAt,value
2019-02-24T00:02:00.028Z,9.63
2019-02-24T00:04:30.916Z,9.10
2019-02-24T00:07:01.896Z,10.07
2019-02-24T00:09:32.755Z,9.47
2019-02-24T00:12:03.679Z,9.37
2019-02-24T00:14:34.586Z,8.43
2019-02-24T00:17:05.605Z,8.87
2019-02-24T00:19:36.502Z,12.63
2019-02-24T00:22:07.546Z,11.40
2019-02-24T00:24:38.457Z,11.37
2019-02-24T00:27:09.464Z,10.80
2019-02-24T00:29:40.351Z,10.40
2019-02-24T00:32:11.898Z,9.47
2019-02-24T00:34:42.818Z,9.23
2019-02-24T00:37:13.756Z,8.30
2019-02-24T00:39:44.709Z,8.97
2019-02-24T00:42:15.840Z,8.90
2019-02-24T00:44:46.764Z,9.80
2019-02-24T00:47:17.737Z,9.13
2019-02-24T00:49:48.649Z,8.67
2019-02-24T00:52:19.590Z,9.00
2019-02-24T00:54:50.479Z,8.57
2019-02-24T00:57:21.467Z,8.57
2019-02-24T00:59:52.902Z,9.33
2019-02-24T01:02:23.856Z,8.80
2019-02-24T01:04:54.754Z,9.83
2019-02-24T01:07:25.678Z,8.53
2019-02-24T01:10:01.386Z,9.53
2019-02-24T01:12:32.700Z,8.83
2019-02-24T01:15:03.693Z,9.57
2019-02-24T01:17:35.105Z,9.40
2019-02-24T01:20:08.607Z,9.37
2019-02-24T01:22:40.980Z,9.67
2019-02-24T01:25:11.906Z,8.67
2019-02-24T01:27:42.834Z,9.37
2019-02-24T01:30:13.734Z,7.87
2019-02-24T01:32:44.678Z,8.90
2019-02-24T01:35:15.570Z,8.83
2019-02-24T01:37:46.556Z,8.17
2019-02-24T01:40:17.462Z,7.87
2019-02-24T01:42:48.397Z,8.50
2019-02-24T01:45:19.290Z,8.20
2019-02-24T01:47:50.279Z,8.37
2019-02-24T01:50:21.190Z,8.47
2019-02-24T01:52:52.115Z,7.87
2019-02-24T01:55:23.056Z,8.30
2019-02-24T01:57:55.428Z,7.90
2019-02-24T02:00:26.433Z,7.97
2019-02-24T02:02:57.428Z,8.40
2019-02-24T02:05:28.397Z,8.27
2019-02-24T02:07:59.361Z,7.57
2019-02-24T02:10:30.319Z,7.83
2019-02-24T02:13:01.270Z,8.43
2019-02-24T02:15:32.215Z,8.13
2019-02-24T02:18:03.297Z,7.23
2019-02-24T02:20:34.195Z,7.37
2019-02-24T02:23:05.118Z,6.60
2019-02-24T02:25:36.035Z,8.17
2019-02-24T02:28:06.929Z,8.30
2019-02-24T02:30:37.835Z,7.77
2019-02-24T02:33:08.771Z,8.40
2019-02-24T02:35:39.678Z,8.10
2019-02-24T02:38:10.631Z,7.73
2019-02-24T02:40:41.523Z,7.73
2019-02-24T02:43:12.824Z,8.70
2019-02-24T02:45:43.706Z,8.40
2019-02-24T02:48:14.687Z,7.70
2019-02-24T02:50:45.568Z,8.03
2019-02-24T02:53:16.526Z,7.50
2019-02-24T02:55:47.458Z,8.30
2019-02-24T02:58:19.210Z,8.37
2019-02-24T03:00:50.143Z,7.73
2019-02-24T03:03:21.207Z,6.93
2019-02-24T03:06:10.150Z,8.50
2019-02-24T03:08:48.709Z,8.00
2019-02-24T03:11:19.631Z,7.33
2019-02-24T03:13:50.573Z,8.37
2019-02-24T03:16:23.241Z,7.93
2019-02-24T03:18:54.156Z,7.43
2019-02-24T03:21:25.130Z,7.33
2019-02-24T03:23:56.129Z,7.83
2019-02-24T03:26:27.005Z,7.80
2019-02-24T03:29:04.055Z,7.73
2019-02-24T03:31:30.604Z,8.40
2019-02-24T03:34:01.619Z,8.70
2019-02-24T03:36:32.529Z,7.57
2019-02-24T03:39:03.899Z,8.27
2019-02-24T03:41:34.794Z,7.73
2019-02-24T03:44:05.716Z,8.57
2019-02-24T03:46:36.606Z,8.17
2019-02-24T03:49:07.537Z,8.20
2019-02-24T03:51:38.447Z,8.30
2019-02-24T03:54:09.368Z,7.73
2019-02-24T03:56:40.353Z,7.87
2019-02-24T03:59:15.308Z,7.87
2019-02-24T04:01:44.867Z,7.17
2019-02-24T04:04:15.808Z,8.17
2019-02-24T04:06:46.724Z,7.60
2019-02-24T04:09:17.710Z,7.80
2019-02-24T04:11:48.610Z,8.27
2019-02-24T04:14:19.550Z,8.47
2019-02-24T04:16:50.513Z,8.23
2019-02-24T04:19:21.460Z,8.23
2019-02-24T04:21:53.025Z,8.30
2019-02-24T04:24:23.948Z,7.60
2019-02-24T04:26:54.853Z,7.87
2019-02-24T04:29:25.845Z,7.33
2019-02-24T04:31:56.810Z,8.23
2019-02-24T04:34:27.752Z,8.00
2019-02-24T04:36:58.646Z,7.60
2019-02-24T04:39:29.559Z,7.40
2019-02-24T04:42:00.506Z,8.50
2019-02-24T04:44:31.459Z,8.00
2019-02-24T04:47:02.411Z,7.67
2019-02-24T04:49:33.473Z,8.53
2019-02-24T04:52:04.360Z,8.37
2019-02-24T04:54:35.291Z,7.63
2019-02-24T04:57:06.179Z,8.33
2019-02-24T04:59:37.113Z,8.20
2019-02-24T05:02:08.087Z,8.60
2019-02-24T05:04:39.021Z,8.50
2019-02-24T05:07:09.921Z,8.73
2019-02-24T05:09:40.847Z,7.93
2019-02-24T05:12:11.741Z,7.80
2019-02-24T05:14:42.685Z,8.77
2019-02-24T05:17:13.627Z,8.00
2019-02-24T05:19:44.573Z,7.70
2019-02-24T05:22:15.473Z,8.80
2019-02-24T05:24:46.415Z,8.20
2019-02-24T05:27:17.326Z,8.27
2019-02-24T05:29:48.240Z,8.30
2019-02-24T05:32:19.152Z,8.43
2019-02-24T05:34:50.130Z,8.30
2019-02-24T05:37:21.028Z,8.07
2019-02-24T05:39:52.000Z,9.27
2019-02-24T05:42:22.909Z,8.67
2019-02-24T05:44:53.854Z,8.33
2019-02-24T05:47:24.766Z,8.67
2019-02-24T05:49:55.729Z,8.53
2019-02-24T05:52:26.621Z,9.63
2019-02-24T05:54:57.599Z,8.77
2019-02-24T05:57:28.561Z,8.00
2019-02-24T05:59:59.514Z,7.53
2019-02-24T06:02:30.429Z,9.13
2019-02-24T06:05:01.382Z,8.87
2019-02-24T06:07:33.263Z,7.70
2019-02-24T06:10:04.789Z,8.13
2019-02-24T06:12:35.772Z,9.30
2019-02-24T06:15:07.096Z,9.17
2019-02-24T06:17:37.993Z,9.40
2019-02-24T06:20:08.959Z,9.43
2019-02-24T06:22:39.932Z,10.70
2019-02-24T06:25:10.859Z,9.57
2019-02-24T06:27:41.743Z,9.80
2019-02-24T06:30:12.694Z,10.73
2019-02-24T06:32:43.591Z,8.93
2019-02-24T06:35:14.552Z,10.00
2019-02-24T06:37:45.456Z,9.33
2019-02-24T06:40:16.456Z,9.43
2019-02-24T06:42:47.422Z,10.10
2019-02-24T06:45:18.359Z,9.73
2019-02-24T06:47:49.256Z,9.17
2019-02-24T06:50:20.272Z,10.20
2019-02-24T06:52:51.184Z,9.47
2019-02-24T06:55:22.120Z,9.23
2019-02-24T06:57:53.012Z,10.43
2019-02-24T07:00:25.774Z,18.27
2019-02-24T07:02:56.673Z,25.67
2019-02-24T07:05:27.655Z,32.50
2019-02-24T07:07:58.621Z,32.93
2019-02-24T07:10:29.567Z,41.30
2019-02-24T07:13:00.490Z,26.43
2019-02-24T07:15:31.452Z,13.70
2019-02-24T07:18:02.450Z,12.87
2019-02-24T07:20:33.446Z,14.47
2019-02-24T07:23:04.339Z,19.70
2019-02-24T07:25:35.271Z,16.27
2019-02-24T07:28:06.207Z,12.93
2019-02-24T07:30:37.118Z,12.53
2019-02-24T07:33:08.038Z,12.40
2019-02-24T07:35:39.010Z,14.30
2019-02-24T07:38:09.915Z,12.30
2019-02-24T07:40:40.851Z,12.40
2019-02-24T07:43:11.786Z,13.00
2019-02-24T07:45:42.709Z,14.30
2019-02-24T07:48:13.709Z,11.67
2019-02-24T07:50:44.793Z,13.30
2019-02-24T07:53:15.709Z,13.17
2019-02-24T07:55:46.667Z,12.20
2019-02-24T07:58:17.650Z,13.23
2019-02-24T08:00:48.600Z,12.83
2019-02-24T08:03:19.523Z,12.67
2019-02-24T08:05:50.468Z,12.23
2019-02-24T08:08:21.371Z,13.33
2019-02-24T08:10:52.318Z,12.07
2019-02-24T08:13:23.222Z,13.93
2019-02-24T08:15:54.184Z,13.93
2019-02-24T08:18:25.077Z,12.67
2019-02-24T08:20:56.086Z,13.23
2019-02-24T08:23:27.109Z,14.80
2019-02-24T08:25:58.058Z,13.90
2019-02-24T08:28:28.980Z,13.03
2019-02-24T08:30:59.987Z,13.17
2019-02-24T08:33:30.895Z,12.40
2019-02-24T08:36:01.865Z,12.87
2019-02-24T08:38:32.767Z,12.90
2019-02-24T08:41:06.038Z,11.67
2019-02-24T08:43:36.955Z,11.90
2019-02-24T08:46:07.898Z,11.20
2019-02-24T08:48:43.881Z,11.90
2019-02-24T08:51:14.815Z,12.27
2019-02-24T08:53:46.114Z,12.00
2019-02-24T08:56:17.215Z,12.47
2019-02-24T08:58:48.111Z,13.60
2019-02-24T09:01:19.160Z,12.50
2019-02-24T09:03:50.080Z,12.57
2019-02-24T09:06:21.035Z,13.70
2019-02-24T09:08:53.228Z,12.90
2019-02-24T09:11:24.396Z,11.40
2019-02-24T09:13:55.306Z,11.03
2019-02-24T09:16:26.247Z,11.23
2019-02-24T09:18:57.148Z,10.20
2019-02-24T09:21:28.100Z,10.63
2019-02-24T09:23:59.014Z,12.27
2019-02-24T09:26:29.951Z,11.00
2019-02-24T09:29:00.864Z,11.53
2019-02-24T09:31:31.795Z,11.83
2019-02-24T09:34:02.719Z,11.80
2019-02-24T09:36:33.683Z,11.27
2019-02-24T09:39:05.249Z,12.50
2019-02-24T09:41:36.021Z,12.80
2019-02-24T09:44:06.939Z,13.07
2019-02-24T09:46:37.880Z,12.33
2019-02-24T09:49:08.822Z,12.37
2019-02-24T09:51:39.780Z,11.97
2019-02-24T09:54:10.815Z,10.23
2019-02-24T09:56:44.683Z,9.97
2019-02-24T09:59:16.125Z,11.67
2019-02-24T10:01:47.093Z,10.30
2019-02-24T10:04:18.029Z,10.17
2019-02-24T10:06:49.021Z,11.20
2019-02-24T10:09:20.012Z,10.30
2019-02-24T10:11:54.351Z,11.23
2019-02-24T10:14:26.565Z,11.63
2019-02-24T10:16:57.613Z,11.27
2019-02-24T10:19:31.249Z,11.60
2019-02-24T10:22:02.346Z,10.50
2019-02-24T10:24:33.343Z,10.90
2019-02-24T10:27:04.310Z,11.70
2019-02-24T10:29:35.332Z,9.77
2019-02-24T10:32:06.958Z,10.77
2019-02-24T10:34:37.891Z,10.47
2019-02-24T10:37:08.866Z,11.33
2019-02-24T10:39:39.773Z,10.57
2019-02-24T10:42:15.467Z,9.80
2019-02-24T10:44:47.700Z,10.20
2019-02-24T10:47:18.712Z,11.03
2019-02-24T10:49:49.619Z,10.00
2019-02-24T10:52:20.577Z,10.40
2019-02-24T10:54:51.464Z,11.07
2019-02-24T10:57:22.399Z,8.83
2019-02-24T10:59:53.301Z,11.20
2019-02-24T11:02:24.220Z,8.70
2019-02-24T11:04:55.118Z,9.80
2019-02-24T11:07:26.136Z,9.87
2019-02-24T11:09:57.148Z,9.37
2019-02-24T11:12:28.090Z,10.27
2019-02-24T11:14:59.010Z,8.60
2019-02-24T11:17:29.954Z,10.17
2019-02-24T11:20:00.959Z,10.23
2019-02-24T11:22:31.948Z,8.93
2019-02-24T11:25:02.945Z,8.60
2019-02-24T11:27:34.854Z,10.70
2019-02-24T11:30:08.405Z,9.67
2019-02-24T11:32:39.500Z,11.57
2019-02-24T11:35:11.862Z,11.67
2019-02-24T11:37:42.942Z,9.60
2019-02-24T11:40:19.983Z,10.83
2019-02-24T11:42:50.961Z,10.93
2019-02-24T11:45:21.920Z,9.93
2019-02-24T11:47:52.851Z,8.83
2019-02-24T11:50:23.815Z,7.43
2019-02-24T11:52:54.774Z,8.43
2019-02-24T11:55:26.038Z,7.33
2019-02-24T11:57:56.966Z,9.87
2019-02-24T12:00:27.873Z,6.53
2019-02-24T12:02:59.649Z,5.47
2019-02-24T12:05:30.650Z,6.30
2019-02-24T12:08:01.593Z,10.73
2019-02-24T12:10:32.505Z,6.93
2019-02-24T12:13:03.516Z,5.70
2019-02-24T12:15:35.212Z,5.90
2019-02-24T12:18:06.136Z,6.50
2019-02-24T12:20:37.103Z,5.40
2019-02-24T12:23:08.057Z,5.63
2019-02-24T12:25:38.965Z,5.60
2019-02-24T12:28:09.898Z,8.53
2019-02-24T12:30:40.803Z,11.85
2019-02-24T12:33:11.752Z,23.62
2019-02-24T12:35:42.786Z,19.60
2019-02-24T12:38:13.962Z,15.05
2019-02-24T12:40:45.036Z,14.80
2019-02-24T12:43:16.050Z,11.55
2019-02-24T12:45:47.122Z,12.93
2019-02-24T12:48:18.132Z,9.98
2019-02-24T12:50:49.078Z,10.77
2019-02-24T12:53:20.080Z,11.97
2019-02-24T12:55:51.145Z,14.03
2019-02-24T12:58:22.205Z,13.93
2019-02-24T13:00:53.844Z,12.00
2019-02-24T13:03:24.819Z,11.53
2019-02-24T13:05:55.879Z,10.67
2019-02-24T13:08:26.880Z,9.78
2019-02-24T13:10:57.953Z,9.35
2019-02-24T13:13:28.928Z,9.10
2019-02-24T13:15:59.982Z,13.30
2019-02-24T13:18:31.080Z,11.55
2019-02-24T13:21:02.128Z,8.35
2019-02-24T13:23:35.135Z,8.28
2019-02-24T13:26:05.799Z,8.58
2019-02-24T13:28:36.870Z,9.50
2019-02-24T13:31:07.780Z,8.40
2019-02-24T13:33:38.718Z,8.28
2019-02-24T13:36:09.624Z,9.95
2019-02-24T13:38:40.587Z,10.08
2019-02-24T13:41:11.573Z,8.23
2019-02-24T13:43:42.516Z,8.53
2019-02-24T13:46:13.430Z,8.53
2019-02-24T13:48:44.363Z,8.35
2019-02-24T13:51:15.272Z,7.97
2019-02-24T13:53:46.237Z,7.45
2019-02-24T13:56:17.137Z,8.43
2019-02-24T13:58:48.843Z,9.55
2019-02-24T14:01:19.753Z,8.93
2019-02-24T14:03:51.485Z,7.92
2019-02-24T14:06:22.399Z,8.43
2019-02-24T14:08:53.342Z,8.25
2019-02-24T14:11:24.265Z,11.00
2019-02-24T14:13:55.204Z,10.75
2019-02-24T14:16:26.117Z,11.95
2019-02-24T14:18:57.130Z,11.03
2019-02-24T14:21:28.044Z,10.93
2019-02-24T14:23:59.002Z,9.90
2019-02-24T14:26:29.915Z,9.65
2019-02-24T14:29:00.841Z,9.88
2019-02-24T14:31:31.745Z,10.48
2019-02-24T14:34:02.684Z,10.85
2019-02-24T14:36:33.606Z,10.43
2019-02-24T14:39:05.590Z,11.20
2019-02-24T14:41:36.496Z,10.63
2019-02-24T14:44:07.449Z,11.03
2019-02-24T14:46:38.365Z,13.57
2019-02-24T14:49:09.313Z,13.13
2019-02-24T14:51:40.217Z,12.93
2019-02-24T14:54:11.194Z,13.67
2019-02-24T14:56:42.112Z,12.28
2019-02-24T14:59:13.086Z,13.67
2019-02-24T15:01:44.026Z,14.07
2019-02-24T15:04:14.988Z,14.03
2019-02-24T15:06:46.021Z,13.25
2019-02-24T15:09:17.372Z,13.20
2019-02-24T15:11:48.282Z,9.80
2019-02-24T15:14:19.256Z,12.97
2019-02-24T15:16:50.205Z,13.30
2019-02-24T15:19:21.160Z,12.43
2019-02-24T15:21:52.081Z,11.93
2019-02-24T15:24:23.074Z,15.53
2019-02-24T15:26:53.970Z,15.53
2019-02-24T15:29:24.914Z,13.13
2019-02-24T15:31:55.830Z,14.80
2019-02-24T15:34:26.851Z,10.40
2019-02-24T15:36:57.763Z,13.97
2019-02-24T15:39:28.716Z,13.53
2019-02-24T15:41:59.632Z,12.13
2019-02-24T15:44:30.571Z,11.97
2019-02-24T15:47:01.485Z,12.10
2019-02-24T15:49:32.406Z,13.13
2019-02-24T15:52:09.760Z,14.00
2019-02-24T15:54:36.101Z,13.37
2019-02-24T15:57:07.008Z,15.87
2019-02-24T15:59:37.936Z,17.13
2019-02-24T16:02:09.191Z,16.90
2019-02-24T16:04:40.967Z,16.10
2019-02-24T16:07:11.876Z,16.87
2019-02-24T16:09:42.830Z,17.30
2019-02-24T16:12:13.747Z,18.30
2019-02-24T16:14:44.733Z,17.67
2019-02-24T16:17:15.661Z,19.90
2019-02-24T16:19:53.693Z,22.37
2019-02-24T16:22:24.615Z,21.67
2019-02-24T16:24:55.587Z,18.33
2019-02-24T16:27:26.497Z,20.57
2019-02-24T16:29:57.507Z,20.03
2019-02-24T16:32:28.412Z,19.77
2019-02-24T16:34:59.352Z,20.37
2019-02-24T16:37:30.253Z,22.53
2019-02-24T16:40:01.232Z,33.90
2019-02-24T16:42:32.173Z,41.77
2019-02-24T16:45:03.200Z,50.73
2019-02-24T16:47:34.128Z,64.00
2019-02-24T16:50:07.883Z,53.77
2019-02-24T16:52:38.826Z,49.00
2019-02-24T16:55:14.562Z,28.73
2019-02-24T16:57:45.492Z,20.73
2019-02-24T17:00:21.340Z,23.67
2019-02-24T17:02:52.244Z,21.37
2019-02-24T17:05:23.251Z,19.20
2019-02-24T17:07:54.159Z,22.73
2019-02-24T17:10:29.668Z,21.17
2019-02-24T17:13:01.888Z,20.07
2019-02-24T17:15:33.035Z,21.73
2019-02-24T17:18:03.941Z,28.10
2019-02-24T17:20:34.934Z,26.43
2019-02-24T17:23:05.904Z,24.37
2019-02-24T17:25:36.862Z,24.57
2019-02-24T17:28:07.763Z,25.10
2019-02-24T17:30:38.696Z,24.73
2019-02-24T17:33:09.595Z,22.87
2019-02-24T17:35:40.607Z,23.07
2019-02-24T17:38:11.515Z,25.00
2019-02-24T17:40:42.468Z,22.23
2019-02-24T17:43:13.387Z,24.10
2019-02-24T17:45:44.913Z,23.27
2019-02-24T17:48:15.896Z,35.50
2019-02-24T17:50:46.833Z,51.27
2019-02-24T17:53:17.731Z,28.43
2019-02-24T17:55:48.693Z,20.90
2019-02-24T17:58:19.599Z,18.97
2019-02-24T18:00:58.169Z,19.37
2019-02-24T18:03:29.143Z,20.93
2019-02-24T18:06:00.835Z,20.57
2019-02-24T18:08:31.755Z,21.40
2019-02-24T18:11:02.725Z,21.10
2019-02-24T18:13:33.631Z,21.33
2019-02-24T18:16:04.563Z,21.07
2019-02-24T18:18:35.460Z,21.70
2019-02-24T18:21:06.723Z,22.80
2019-02-24T18:23:37.771Z,23.73
2019-02-24T18:26:08.732Z,23.97
2019-02-24T18:28:39.638Z,24.33
2019-02-24T18:31:10.560Z,23.47
2019-02-24T18:33:48.160Z,22.87
2019-02-24T18:36:14.093Z,23.47
2019-02-24T18:38:45.001Z,23.63
2019-02-24T18:41:16.115Z,24.17
2019-02-24T18:43:47.020Z,26.43
2019-02-24T18:46:17.951Z,25.33
2019-02-24T18:48:48.866Z,25.73
2019-02-24T18:51:19.857Z,27.70
2019-02-24T18:53:50.761Z,26.33
2019-02-24T18:56:21.732Z,24.33
2019-02-24T18:58:52.633Z,21.43
2019-02-24T19:01:23.566Z,20.80
2019-02-24T19:03:57.634Z,21.10
2019-02-24T19:06:27.222Z,23.73
2019-02-24T19:08:58.133Z,50.67
2019-02-24T19:11:29.205Z,26.00
2019-02-24T19:14:00.138Z,25.07
2019-02-24T19:16:31.142Z,25.43
2019-02-24T19:19:02.030Z,42.27
2019-02-24T19:21:32.971Z,30.77
2019-02-24T19:24:03.947Z,24.03
2019-02-24T19:26:34.926Z,23.53
2019-02-24T19:29:05.840Z,25.07
2019-02-24T19:31:36.772Z,25.67
2019-02-24T19:34:07.680Z,27.50
2019-02-24T19:36:38.635Z,24.17
2019-02-24T19:39:12.472Z,25.73
2019-02-24T19:41:43.420Z,23.83
2019-02-24T19:44:14.320Z,25.30
2019-02-24T19:46:45.254Z,23.80
2019-02-24T19:49:16.157Z,24.10
2019-02-24T19:51:47.159Z,23.70
2019-02-24T19:54:18.090Z,21.67
2019-02-24T19:56:49.129Z,22.17
2019-02-24T19:59:20.305Z,21.50
2019-02-24T20:01:51.232Z,21.93
2019-02-24T20:04:22.138Z,23.00
2019-02-24T20:06:53.074Z,22.17
2019-02-24T20:09:23.985Z,24.07
2019-02-24T20:11:54.959Z,24.20
2019-02-24T20:14:25.855Z,25.87
2019-02-24T20:16:56.790Z,25.23
2019-02-24T20:19:27.681Z,27.40
2019-02-24T20:21:58.623Z,29.07
2019-02-24T20:24:33.056Z,28.47
2019-02-24T20:27:02.166Z,26.33
2019-02-24T20:29:33.079Z,24.90
2019-02-24T20:32:04.033Z,23.83
2019-02-24T20:34:34.940Z,23.67
2019-02-24T20:37:05.886Z,23.37
2019-02-24T20:39:36.798Z,22.63
2019-02-24T20:42:07.753Z,21.83
2019-02-24T20:44:38.669Z,22.97
2019-02-24T20:47:09.604Z,23.13
2019-02-24T20:49:40.502Z,24.20
2019-02-24T20:52:11.458Z,22.77
2019-02-24T20:54:42.374Z,23.17
2019-02-24T20:57:13.355Z,23.43
2019-02-24T20:59:44.262Z,24.87
2019-02-24T21:02:15.215Z,25.97
2019-02-24T21:04:46.119Z,25.43
2019-02-24T21:07:17.122Z,24.43
2019-02-24T21:09:48.023Z,25.63
2019-02-24T21:12:18.995Z,25.00
2019-02-24T21:14:49.904Z,23.73
2019-02-24T21:17:20.829Z,24.77
2019-02-24T21:19:51.744Z,25.13
2019-02-24T21:22:22.665Z,25.77
2019-02-24T21:24:53.590Z,26.00
2019-02-24T21:27:24.579Z,26.00
2019-02-24T21:29:55.486Z,25.50
2019-02-24T21:32:26.418Z,25.13
2019-02-24T21:34:57.330Z,25.43
2019-02-24T21:37:28.256Z,24.50
2019-02-24T21:39:59.168Z,24.33
2019-02-24T21:42:30.207Z,24.77
2019-02-24T21:45:01.106Z,24.87
2019-02-24T21:47:32.048Z,25.80
2019-02-24T21:50:02.998Z,26.97
2019-02-24T21:52:33.925Z,25.00
2019-02-24T21:55:05.539Z,26.03
2019-02-24T21:57:36.509Z,24.90
2019-02-24T22:00:15.901Z,26.77
2019-02-24T22:02:46.834Z,27.70
2019-02-24T22:05:17.735Z,28.20
2019-02-24T22:07:49.481Z,26.70
2019-02-24T22:10:20.451Z,26.50
2019-02-24T22:12:51.438Z,27.17
2019-02-24T22:15:26.636Z,28.10
2019-02-24T22:17:57.569Z,27.77
2019-02-24T22:20:28.466Z,27.70
2019-02-24T22:22:59.501Z,27.27
2019-02-24T22:25:30.399Z,28.00
2019-02-24T22:28:01.368Z,27.10
2019-02-24T22:30:32.285Z,26.67
2019-02-24T22:33:03.197Z,28.43
2019-02-24T22:35:34.111Z,30.23
2019-02-24T22:38:05.132Z,28.03
2019-02-24T22:40:36.037Z,28.97
2019-02-24T22:43:07.371Z,29.73
2019-02-24T22:45:38.282Z,32.97
2019-02-24T22:48:09.211Z,33.40
2019-02-24T22:50:40.117Z,32.70
2019-02-24T22:53:11.035Z,32.27
2019-02-24T22:55:41.935Z,31.13
2019-02-24T22:58:12.921Z,33.43
2019-02-24T23:00:53.910Z,31.60
2019-02-24T23:03:30.278Z,31.70
2019-02-24T23:06:01.176Z,34.30
2019-02-24T23:08:32.110Z,32.13
2019-02-24T23:11:03.013Z,29.47
2019-02-24T23:13:33.963Z,31.20
2019-02-24T23:16:04.960Z,30.70
2019-02-24T23:18:35.896Z,31.10
2019-02-24T23:21:06.798Z,31.80
2019-02-24T23:23:37.728Z,29.73
2019-02-24T23:26:08.642Z,31.03
2019-02-24T23:28:39.649Z,32.13
2019-02-24T23:31:10.561Z,31.73
2019-02-24T23:33:41.499Z,31.50
2019-02-24T23:36:12.397Z,30.27
2019-02-24T23:38:43.331Z,30.10
2019-02-24T23:41:14.797Z,33.23
2019-02-24T23:43:45.736Z,31.10
2019-02-24T23:46:16.633Z,32.37
2019-02-24T23:48:47.568Z,31.23
2019-02-24T23:51:18.474Z,32.93
2019-02-24T23:53:49.397Z,30.50
2019-02-24T23:56:20.312Z,31.10
2019-02-24T23:58:51.350Z,32.67
